Time;durP1;ratioP1;P1;durP2;ratioP2;P2;SDS_P1;SDS_P2;PMS_P1;PMS_P2;Temp;Humidity;BMP_temperature;BMP_pressure;BME280_temperature;BME280_humidity;BME280_pressure;Samples;Min_cycle;Max_cycle;Signal;HPM_P1;HPM_P2
2023/02/03 00:01:14;;;;;;;20.23;18.30;;;3.70;99.90;;;;;;4857819;29;20240;-43
2023/02/03 00:03:40;;;;;;;20.50;18.70;;;3.70;99.90;;;;;;4856549;29;20575;-43
2023/02/03 00:06:05;;;;;;;19.87;18.20;;;3.70;99.90;;;;;;4857189;29;20597;-44
2023/02/03 00:08:31;;;;;;;19.37;17.57;;;3.70;99.90;;;;;;4856971;29;20718;-45
2023/02/03 00:10:58;;;;;;;19.77;18.20;;;3.80;99.90;;;;;;4858223;29;20201;-44
2023/02/03 00:13:25;;;;;;;20.55;18.85;;;3.70;99.90;;;;;;4857949;29;20240;-43
2023/02/03 00:15:51;;;;;;;18.92;17.38;;;3.80;99.90;;;;;;4856406;29;20201;-46
2023/02/03 00:18:17;;;;;;;19.73;18.13;;;3.80;99.90;;;;;;4857507;29;20965;-46
2023/02/03 00:20:43;;;;;;;20.60;18.57;;;3.80;99.90;;;;;;4857502;29;20196;-42
2023/02/03 00:23:10;;;;;;;20.70;18.83;;;3.80;99.90;;;;;;4857681;29;20271;-43
2023/02/03 00:25:36;;;;;;;19.80;18.10;;;3.80;99.90;;;;;;4856693;29;20188;-46
2023/02/03 00:28:02;;;;;;;19.27;17.17;;;3.80;99.90;;;;;;4857076;29;20263;-44
2023/02/03 00:30:28;;;;;;;20.38;18.40;;;3.80;99.90;;;;;;4857214;29;20500;-48
2023/02/03 00:32:54;;;;;;;20.00;18.23;;;3.80;99.90;;;;;;4857472;29;20275;-45
2023/02/03 00:35:20;;;;;;;19.23;17.30;;;3.80;99.90;;;;;;4855008;29;20195;-43
2023/02/03 00:37:53;;;;;;;18.97;17.47;;;3.80;99.90;;;;;;4850788;29;20207;-47
2023/02/03 00:40:20;;;;;;;19.45;17.45;;;3.90;99.90;;;;;;4856988;29;21146;-44
2023/02/03 00:42:46;;;;;;;19.40;17.80;;;3.90;99.90;;;;;;4857260;29;20549;-42
2023/02/03 00:45:11;;;;;;;19.97;18.23;;;3.90;99.90;;;;;;4856066;29;20227;-43
2023/02/03 00:47:37;;;;;;;19.43;17.70;;;3.90;99.90;;;;;;4856104;29;20192;-42
2023/02/03 00:50:04;;;;;;;20.00;18.10;;;4.00;99.90;;;;;;4856365;29;20273;-44
2023/02/03 00:52:30;;;;;;;20.40;18.70;;;4.00;99.90;;;;;;4844632;29;20206;-43
2023/02/03 00:54:55;;;;;;;20.97;19.03;;;4.00;99.90;;;;;;4854821;29;20795;-43
2023/02/03 00:57:21;;;;;;;21.20;19.07;;;4.00;99.90;;;;;;4856813;29;20297;-44
2023/02/03 00:59:46;;;;;;;21.23;19.43;;;3.90;99.90;;;;;;4856775;29;20222;-44
2023/02/03 01:02:12;;;;;;;21.43;19.53;;;3.90;99.90;;;;;;4856764;29;20206;-42
2023/02/03 01:04:38;;;;;;;21.97;19.60;;;3.80;99.90;;;;;;4856254;29;20216;-43
2023/02/03 01:07:03;;;;;;;22.57;20.53;;;3.70;99.90;;;;;;4856290;29;20811;-43
2023/02/03 01:09:33;;;;;;;22.77;20.77;;;3.70;99.90;;;;;;4856694;29;20190;-43
2023/02/03 01:11:59;;;;;;;22.10;20.27;;;3.70;99.90;;;;;;4856505;29;20191;-43
2023/02/03 01:14:25;;;;;;;21.53;19.73;;;3.60;99.90;;;;;;4856543;29;20186;-42
2023/02/03 01:16:50;;;;;;;22.10;20.17;;;3.70;99.90;;;;;;4856888;29;20246;-45
2023/02/03 01:19:16;;;;;;;21.73;19.90;;;3.70;99.90;;;;;;4859105;29;20200;-44
2023/02/03 01:21:42;;;;;;;21.97;19.80;;;3.70;99.90;;;;;;4856608;29;20197;-44
2023/02/03 01:24:08;;;;;;;21.73;19.90;;;3.60;99.90;;;;;;4855716;29;20262;-43
2023/02/03 01:26:34;;;;;;;22.15;20.23;;;3.60;99.90;;;;;;4855864;29;20226;-43
2023/02/03 01:29:00;;;;;;;22.10;20.20;;;3.60;99.90;;;;;;4856497;29;20195;-42
2023/02/03 01:31:33;;;;;;;21.90;20.10;;;3.60;99.90;;;;;;4857154;29;20240;-42
2023/02/03 01:33:59;;;;;;;21.42;19.77;;;3.60;99.90;;;;;;4855451;29;20510;-40
2023/02/03 01:36:27;;;;;;;21.77;20.17;;;3.60;99.90;;;;;;4853078;29;20291;-45
2023/02/03 01:38:53;;;;;;;22.00;19.90;;;3.60;99.90;;;;;;4856230;29;20533;-42
2023/02/03 01:41:21;;;;;;;19.33;17.73;;;3.70;99.90;;;;;;4856900;29;20206;-42
2023/02/03 01:43:50;;;;;;;20.23;18.45;;;3.60;99.90;;;;;;4856411;29;20225;-45
2023/02/03 01:46:30;;;;;;;19.42;17.92;;;3.60;99.90;;;;;;4855884;29;20307;-42
2023/02/03 01:49:08;;;;;;;20.15;18.55;;;3.50;99.90;;;;;;4854149;29;20296;-44
2023/02/03 01:51:37;;;;;;;19.27;17.45;;;3.50;99.90;;;;;;4860178;29;20189;-42
2023/02/03 01:54:03;;;;;;;20.30;18.55;;;3.50;99.90;;;;;;4858952;29;20607;-44
2023/02/03 01:56:34;;;;;;;20.15;18.30;;;3.50;99.90;;;;;;4860294;29;20274;-42
2023/02/03 01:59:00;;;;;;;19.30;17.75;;;3.60;99.90;;;;;;4859745;29;20677;-42
2023/02/03 02:01:28;;;;;;;19.55;18.05;;;3.50;99.90;;;;;;4860115;29;20226;-45
2023/02/03 02:03:57;;;;;;;19.05;17.45;;;3.50;99.90;;;;;;4858744;29;20733;-46
2023/02/03 02:06:23;;;;;;;19.40;17.90;;;3.60;99.90;;;;;;4860033;29;20180;-45
2023/02/03 02:08:51;;;;;;;20.20;18.47;;;3.60;99.90;;;;;;4859431;29;20241;-47
2023/02/03 02:11:21;;;;;;;19.35;17.90;;;3.60;99.90;;;;;;4859866;29;20193;-45
2023/02/03 02:13:50;;;;;;;20.25;18.30;;;3.60;99.90;;;;;;4849440;29;20251;-48
2023/02/03 02:16:26;;;;;;;20.42;18.50;;;3.70;99.90;;;;;;4859932;29;20611;-42
2023/02/03 02:19:30;;;;;;;20.27;18.73;;;3.70;99.90;;;;;;4859216;29;20215;-42
2023/02/03 02:22:10;;;;;;;19.50;17.83;;;3.70;99.90;;;;;;4859057;29;20197;-42
2023/02/03 02:25:10;;;;;;;19.40;17.88;;;3.80;99.90;;;;;;4859197;29;20297;-45
2023/02/03 02:28:25;;;;;;;19.55;17.95;;;3.80;99.90;;;;;;4858420;29;20201;-44
2023/02/03 02:31:42;;;;;;;18.83;17.30;;;3.80;99.90;;;;;;4857784;29;20177;-44
2023/02/03 02:34:38;;;;;;;18.48;16.85;;;3.80;99.90;;;;;;4850886;29;20211;-42
2023/02/03 02:37:29;;;;;;;18.05;16.65;;;3.80;99.90;;;;;;4859773;29;20199;-42
2023/02/03 02:40:02;;;;;;;18.00;16.52;;;3.80;99.90;;;;;;4856029;29;20186;-42
2023/02/03 02:42:54;;;;;;;17.48;15.55;;;3.80;99.90;;;;;;4859873;29;20618;-46
2023/02/03 02:45:38;;;;;;;16.88;15.48;;;3.80;99.90;;;;;;4858035;29;20242;-43
2023/02/03 02:48:09;;;;;;;15.90;14.80;;;3.80;99.90;;;;;;4863549;29;20193;-43
2023/02/03 02:50:40;;;;;;;17.27;15.95;;;3.80;99.90;;;;;;4859125;29;20200;-44
2023/02/03 02:53:07;;;;;;;17.00;15.75;;;3.80;99.90;;;;;;4859175;29;20223;-41
2023/02/03 02:55:37;;;;;;;17.00;15.80;;;3.80;99.90;;;;;;4857375;29;20199;-41
2023/02/03 02:58:06;;;;;;;15.10;14.00;;;3.80;99.90;;;;;;4858058;29;20285;-41
2023/02/03 03:00:34;;;;;;;15.80;14.55;;;3.80;99.90;;;;;;4858647;29;20233;-43
2023/02/03 03:03:11;;;;;;;15.70;14.60;;;3.80;99.90;;;;;;4858424;29;20202;-41
2023/02/03 03:05:39;;;;;;;16.42;15.32;;;3.80;99.90;;;;;;4858681;29;20414;-41
2023/02/03 03:08:05;;;;;;;16.38;14.95;;;3.80;99.90;;;;;;4857945;29;20228;-41
2023/02/03 03:10:32;;;;;;;15.18;14.25;;;3.80;99.90;;;;;;4858493;29;20760;-41
2023/02/03 03:13:04;;;;;;;15.27;14.18;;;3.80;99.90;;;;;;4858695;29;20287;-42
2023/02/03 03:15:33;;;;;;;15.35;14.10;;;3.80;99.90;;;;;;4855775;29;20197;-42
2023/02/03 03:18:18;;;;;;;14.77;13.68;;;3.80;99.90;;;;;;4858316;29;20205;-42
2023/02/03 03:20:46;;;;;;;14.90;13.80;;;3.80;99.90;;;;;;4858485;29;20192;-42
2023/02/03 03:23:23;;;;;;;16.00;14.82;;;3.80;99.90;;;;;;4857460;29;20197;-43
2023/02/03 03:25:53;;;;;;;15.32;14.10;;;3.80;99.90;;;;;;4858082;29;20260;-41
2023/02/03 03:28:26;;;;;;;15.27;14.27;;;3.90;99.90;;;;;;4858544;29;20215;-41
2023/02/03 03:30:52;;;;;;;15.15;14.00;;;3.90;99.90;;;;;;4857785;29;20191;-46
2023/02/03 03:33:19;;;;;;;15.70;14.52;;;3.90;99.90;;;;;;4857849;29;20195;-43
2023/02/03 03:35:51;;;;;;;15.10;14.00;;;4.00;99.90;;;;;;4845685;29;20666;-44
2023/02/03 03:38:31;;;;;;;14.93;14.02;;;4.00;99.90;;;;;;4858515;29;20201;-45
2023/02/03 03:41:15;;;;;;;15.43;14.35;;;4.00;99.90;;;;;;4858212;29;20222;-43
2023/02/03 03:43:43;;;;;;;15.10;14.20;;;4.10;99.90;;;;;;4857674;29;20409;-44
2023/02/03 03:46:13;;;;;;;15.05;13.98;;;4.10;99.90;;;;;;4857910;29;20271;-44
2023/02/03 03:48:52;;;;;;;14.70;13.80;;;4.10;99.90;;;;;;4857942;29;20195;-43
2023/02/03 03:51:24;;;;;;;15.35;14.35;;;4.10;99.90;;;;;;4857973;29;20302;-42
2023/02/03 03:53:52;;;;;;;15.90;14.80;;;4.10;99.90;;;;;;4857201;29;20245;-43
2023/02/03 03:56:24;;;;;;;15.55;14.25;;;4.20;99.90;;;;;;4856624;29;20196;-42
2023/02/03 03:58:52;;;;;;;14.50;13.60;;;4.20;99.90;;;;;;4857830;29;20232;-42
2023/02/03 04:01:20;;;;;;;14.95;13.90;;;4.20;99.90;;;;;;4857499;29;20189;-44
2023/02/03 04:03:55;;;;;;;14.90;13.95;;;4.20;99.90;;;;;;4857156;29;20298;-46
2023/02/03 04:06:20;;;;;;;14.30;13.60;;;4.30;99.90;;;;;;4856156;29;20231;-43
2023/02/03 04:08:46;;;;;;;15.27;14.17;;;4.30;99.90;;;;;;4857354;29;20234;-43
2023/02/03 04:11:59;;;;;;;15.60;14.60;;;4.30;99.90;;;;;;4857329;29;20195;-44
2023/02/03 04:13:57;;;;;;;16.00;15.00;;;4.30;99.90;;;;;;4855003;29;20215;-43
2023/02/03 04:16:22;;;;;;;15.43;14.33;;;4.30;99.90;;;;;;4857386;29;20544;-41
2023/02/03 04:18:48;;;;;;;15.20;14.30;;;4.40;99.90;;;;;;4857308;29;20196;-41
2023/02/03 04:21:14;;;;;;;15.83;14.60;;;4.40;99.90;;;;;;4857344;29;20203;-44
2023/02/03 04:23:39;;;;;;;15.57;14.47;;;4.40;99.90;;;;;;4856873;29;20273;-44
2023/02/03 04:26:05;;;;;;;16.27;15.17;;;4.50;99.90;;;;;;4857514;29;20188;-43
2023/02/03 04:28:30;;;;;;;15.93;14.80;;;4.50;99.90;;;;;;4857402;29;20200;-42
2023/02/03 04:30:59;;;;;;;16.47;15.33;;;4.50;99.90;;;;;;4857111;29;20595;-41
2023/02/03 04:33:25;;;;;;;15.85;14.80;;;4.60;99.90;;;;;;4856080;29;20204;-41
2023/02/03 04:35:51;;;;;;;16.60;15.40;;;4.60;99.90;;;;;;4855779;29;20215;-45
2023/02/03 04:38:16;;;;;;;16.17;15.17;;;4.60;99.90;;;;;;4857636;29;20203;-42
2023/02/03 04:40:44;;;;;;;16.40;15.20;;;4.70;99.90;;;;;;4857193;29;20203;-43
2023/02/03 04:43:10;;;;;;;17.25;16.05;;;4.80;99.90;;;;;;4856998;29;20211;-45
2023/02/03 04:45:37;;;;;;;17.02;15.75;;;5.10;99.90;;;;;;4856350;29;20299;-45
2023/02/03 04:48:06;;;;;;;17.17;15.97;;;5.50;99.90;;;;;;4856175;29;20704;-42
2023/02/03 04:50:31;;;;;;;18.17;16.77;;;5.60;99.90;;;;;;4856930;29;20196;-44
2023/02/03 04:52:59;;;;;;;17.20;15.80;;;5.90;99.90;;;;;;4856884;29;20188;-44
2023/02/03 04:55:25;;;;;;;17.08;15.68;;;6.10;99.90;;;;;;4855919;29;20220;-42
2023/02/03 04:57:55;;;;;;;18.73;17.13;;;6.30;99.90;;;;;;4856974;29;20195;-42
2023/02/03 05:00:21;;;;;;;17.85;16.17;;;6.40;99.90;;;;;;4856613;29;20196;-44
2023/02/03 05:02:46;;;;;;;18.03;16.60;;;6.50;99.90;;;;;;4856710;29;20210;-43
2023/02/03 05:05:12;;;;;;;19.10;17.60;;;6.50;99.90;;;;;;4856130;29;20208;-44
2023/02/03 05:07:37;;;;;;;18.20;16.83;;;6.60;99.90;;;;;;4856778;29;20249;-44
2023/02/03 05:10:03;;;;;;;19.27;17.80;;;6.60;99.90;;;;;;4856472;29;20188;-41
2023/02/03 05:12:29;;;;;;;17.73;16.43;;;6.60;99.90;;;;;;4856189;29;20232;-43
2023/02/03 05:14:54;;;;;;;18.10;16.70;;;6.70;99.90;;;;;;4855262;29;20197;-44
2023/02/03 05:17:20;;;;;;;19.27;17.77;;;6.70;99.90;;;;;;4849681;29;20200;-42
2023/02/03 05:19:46;;;;;;;18.37;17.07;;;6.70;99.90;;;;;;4857889;29;20217;-43
2023/02/03 05:22:11;;;;;;;18.40;17.00;;;6.80;99.90;;;;;;4856716;29;20192;-43
2023/02/03 05:24:37;;;;;;;18.23;16.97;;;6.80;99.90;;;;;;4856974;29;20683;-42
2023/02/03 05:27:03;;;;;;;18.97;17.47;;;6.80;99.90;;;;;;4859527;29;20671;-43
2023/02/03 05:29:28;;;;;;;18.53;17.23;;;6.90;99.90;;;;;;4859930;29;20199;-47
2023/02/03 05:31:54;;;;;;;19.13;17.67;;;6.90;99.90;;;;;;4860813;29;20189;-42
2023/02/03 05:34:20;;;;;;;19.07;17.67;;;6.90;99.90;;;;;;4859839;29;21038;-43
2023/02/03 05:36:45;;;;;;;18.90;17.50;;;6.90;99.90;;;;;;4860565;29;20180;-42
2023/02/03 05:39:11;;;;;;;19.23;17.80;;;6.90;99.90;;;;;;4860439;29;20285;-41
2023/02/03 05:41:51;;;;;;;18.63;17.13;;;7.00;99.90;;;;;;4860210;29;20291;-42
2023/02/03 05:44:25;;;;;;;18.17;16.77;;;7.00;99.90;;;;;;4859797;29;20216;-43
2023/02/03 05:46:53;;;;;;;19.83;18.20;;;7.00;99.90;;;;;;4859191;29;20647;-43
2023/02/03 05:49:19;;;;;;;18.85;17.15;;;7.10;99.90;;;;;;4860384;29;20189;-43
2023/02/03 05:51:45;;;;;;;18.70;17.10;;;7.10;99.90;;;;;;4859990;29;20680;-46
2023/02/03 05:54:11;;;;;;;17.20;16.00;;;7.10;99.90;;;;;;4857637;29;20441;-43
2023/02/03 05:56:37;;;;;;;16.93;15.53;;;7.20;99.90;;;;;;4847227;29;20310;-42
2023/02/03 05:59:04;;;;;;;17.60;16.00;;;7.10;99.90;;;;;;4859205;29;20324;-43
2023/02/03 06:01:29;;;;;;;18.25;16.83;;;7.20;99.90;;;;;;4858855;29;20200;-42
2023/02/03 06:03:55;;;;;;;17.70;16.30;;;7.20;99.90;;;;;;4859332;29;20224;-41
2023/02/03 06:06:21;;;;;;;17.73;16.33;;;7.30;99.90;;;;;;4859257;29;20653;-43
2023/02/03 06:08:46;;;;;;;17.47;16.17;;;7.30;99.90;;;;;;4859024;29;20244;-43
2023/02/03 06:11:12;;;;;;;16.83;15.63;;;7.30;99.90;;;;;;4858727;29;20177;-44
2023/02/03 06:13:38;;;;;;;16.20;15.10;;;7.30;99.90;;;;;;4858448;29;20185;-44
2023/02/03 06:16:04;;;;;;;17.27;16.00;;;7.40;99.90;;;;;;4859066;29;20529;-46
2023/02/03 06:18:30;;;;;;;17.37;16.03;;;7.50;99.90;;;;;;4859361;29;20244;-44
2023/02/03 06:20:55;;;;;;;17.63;16.23;;;7.50;99.90;;;;;;4857551;29;20200;-42
2023/02/03 06:23:21;;;;;;;17.97;16.47;;;7.40;99.90;;;;;;4858262;29;20789;-43
2023/02/03 06:25:48;;;;;;;18.37;16.97;;;7.40;99.90;;;;;;4851214;29;20319;-48
2023/02/03 06:28:14;;;;;;;18.73;17.33;;;7.40;99.90;;;;;;4856126;29;20219;-45
2023/02/03 06:30:40;;;;;;;17.23;15.93;;;7.40;99.90;;;;;;4857802;29;20877;-43
2023/02/03 06:33:05;;;;;;;17.50;16.20;;;7.40;99.90;;;;;;4858513;29;20464;-42
2023/02/03 06:35:31;;;;;;;17.77;16.47;;;7.40;99.90;;;;;;4857905;29;20193;-43
2023/02/03 06:37:56;;;;;;;16.80;15.60;;;7.40;99.90;;;;;;4858136;29;20706;-45
2023/02/03 06:40:22;;;;;;;17.37;16.17;;;7.40;99.90;;;;;;4858516;29;20188;-45
2023/02/03 06:42:49;;;;;;;17.87;16.57;;;7.50;99.90;;;;;;4858544;29;20756;-48
2023/02/03 06:45:15;;;;;;;17.20;15.93;;;7.40;99.90;;;;;;4857597;29;20861;-44
2023/02/03 06:47:42;;;;;;;17.10;15.90;;;7.40;99.90;;;;;;4852224;29;20437;-43
2023/02/03 06:50:11;;;;;;;16.10;14.80;;;7.50;99.90;;;;;;4857255;29;20475;-43
2023/02/03 06:52:36;;;;;;;18.17;16.90;;;7.50;99.90;;;;;;4855099;29;20528;-45
2023/02/03 06:55:03;;;;;;;17.60;16.40;;;7.50;99.90;;;;;;4846128;29;21074;-42
2023/02/03 06:57:29;;;;;;;16.60;15.50;;;7.50;99.90;;;;;;4858336;29;20775;-45
2023/02/03 06:59:54;;;;;;;18.27;16.97;;;7.50;99.90;;;;;;4867153;29;20441;-42
2023/02/03 07:02:20;;;;;;;19.00;17.50;;;7.50;99.90;;;;;;4858125;29;20224;-44
2023/02/03 07:04:46;;;;;;;17.83;16.63;;;7.40;99.90;;;;;;4858272;29;20250;-41
2023/02/03 07:07:12;;;;;;;17.67;16.33;;;7.40;99.90;;;;;;4858325;29;20200;-45
2023/02/03 07:09:40;;;;;;;18.33;17.03;;;7.40;99.90;;;;;;4858227;29;20212;-42
2023/02/03 07:12:07;;;;;;;14.87;13.70;;;7.40;99.90;;;;;;4857480;29;20482;-45
2023/02/03 07:14:38;;;;;;;14.90;13.80;;;7.40;99.90;;;;;;4857949;29;20927;-43
2023/02/03 07:17:05;;;;;;;14.80;13.60;;;7.40;99.90;;;;;;4858109;29;20434;-43
2023/02/03 07:19:31;;;;;;;17.60;16.37;;;7.40;99.90;;;;;;4858266;29;20244;-44
2023/02/03 07:21:56;;;;;;;16.40;15.30;;;7.50;99.90;;;;;;4857438;29;20528;-44
2023/02/03 07:24:22;;;;;;;15.60;14.60;;;7.50;99.90;;;;;;4841775;29;20216;-42
2023/02/03 07:26:47;;;;;;;16.43;15.30;;;7.50;99.90;;;;;;4857918;29;20285;-43
2023/02/03 07:29:13;;;;;;;15.80;14.70;;;7.50;99.90;;;;;;4857740;29;20287;-44
2023/02/03 07:31:39;;;;;;;14.73;13.73;;;7.60;99.90;;;;;;4857032;29;20193;-46
2023/02/03 07:34:05;;;;;;;16.20;15.10;;;7.60;99.90;;;;;;4852104;29;20197;-46
2023/02/03 07:36:31;;;;;;;15.83;14.63;;;7.70;99.90;;;;;;4857887;29;20647;-43
2023/02/03 07:38:57;;;;;;;15.90;14.90;;;7.70;99.90;;;;;;4857793;29;20436;-43
2023/02/03 07:41:23;;;;;;;15.80;14.70;;;7.80;99.90;;;;;;4855930;29;20436;-43
2023/02/03 07:43:48;;;;;;;14.77;13.90;;;7.80;99.90;;;;;;4857549;29;20465;-43
2023/02/03 07:46:14;;;;;;;15.60;14.60;;;7.80;99.90;;;;;;4857328;29;20263;-44
2023/02/03 07:48:40;;;;;;;15.40;14.50;;;7.80;99.90;;;;;;4855915;29;20723;-43
2023/02/03 07:51:05;;;;;;;17.13;16.13;;;7.80;99.90;;;;;;4857421;29;20260;-45
2023/02/03 07:53:31;;;;;;;18.77;17.47;;;7.80;99.90;;;;;;4856833;29;20284;-43
2023/02/03 07:56:01;;;;;;;18.77;17.67;;;7.70;99.90;;;;;;4857283;29;20189;-42
2023/02/03 07:58:28;;;;;;;17.07;16.07;;;7.70;99.90;;;;;;4855821;29;20215;-42
2023/02/03 08:00:53;;;;;;;17.40;16.40;;;7.60;99.90;;;;;;4857049;29;20468;-45
2023/02/03 08:03:19;;;;;;;17.53;16.53;;;7.50;99.90;;;;;;4856651;29;20468;-46
2023/02/03 08:05:45;;;;;;;19.30;18.00;;;7.50;99.90;;;;;;4855862;29;20220;-44
2023/02/03 08:08:11;;;;;;;18.37;17.17;;;7.40;99.90;;;;;;4856889;29;20232;-43
2023/02/03 08:10:37;;;;;;;17.60;16.50;;;7.30;99.90;;;;;;4856901;29;20777;-43
2023/02/03 08:13:02;;;;;;;17.23;16.17;;;7.30;99.90;;;;;;4856827;29;20293;-45
2023/02/03 08:15:28;;;;;;;16.70;15.70;;;7.30;99.90;;;;;;4857012;29;20244;-45
2023/02/03 08:17:54;;;;;;;17.07;15.80;;;7.30;99.90;;;;;;4855741;29;20719;-46
2023/02/03 08:20:19;;;;;;;17.03;15.93;;;7.20;99.90;;;;;;4857028;29;20296;-48
2023/02/03 08:22:45;;;;;;;15.83;14.93;;;7.20;99.90;;;;;;4856234;29;20196;-47
2023/02/03 08:25:12;;;;;;;17.23;16.23;;;7.20;99.90;;;;;;4856618;29;20235;-44
2023/02/03 08:27:37;;;;;;;16.70;15.60;;;7.20;99.90;;;;;;4856905;29;20276;-44
2023/02/03 08:30:04;;;;;;;16.43;15.53;;;7.20;99.90;;;;;;4856868;29;20834;-45
2023/02/03 08:32:31;;;;;;;16.03;15.07;;;7.20;99.90;;;;;;4860629;29;20520;-44
2023/02/03 08:34:57;;;;;;;15.75;14.85;;;7.20;99.90;;;;;;4857110;29;20510;-44
2023/02/03 08:37:23;;;;;;;16.70;15.60;;;7.20;99.90;;;;;;4856985;29;20388;-45
2023/02/03 08:39:49;;;;;;;15.45;14.65;;;7.20;99.90;;;;;;4857258;29;20571;-47
2023/02/03 08:42:16;;;;;;;15.87;14.87;;;7.20;99.90;;;;;;4855915;29;20185;-47
2023/02/03 08:44:42;;;;;;;17.20;16.10;;;7.30;99.90;;;;;;4856678;29;20457;-47
2023/02/03 08:47:09;;;;;;;16.20;15.30;;;7.30;99.90;;;;;;4856251;29;20189;-47
2023/02/03 08:49:38;;;;;;;15.93;14.93;;;7.30;99.90;;;;;;4860972;29;20644;-46
2023/02/03 08:52:04;;;;;;;15.60;14.70;;;7.30;99.90;;;;;;4855639;29;20184;-47
2023/02/03 08:54:30;;;;;;;16.40;15.35;;;7.30;99.90;;;;;;4855329;29;20284;-47
2023/02/03 08:56:56;;;;;;;16.35;15.40;;;7.40;99.90;;;;;;4856916;29;20203;-46
2023/02/03 08:59:22;;;;;;;16.60;15.70;;;7.40;99.90;;;;;;4855866;29;20185;-47
2023/02/03 09:01:48;;;;;;;16.13;15.13;;;7.40;99.90;;;;;;4855449;29;20192;-47
2023/02/03 09:04:23;;;;;;;15.68;14.88;;;7.40;99.90;;;;;;4856357;29;20477;-49
2023/02/03 09:06:50;;;;;;;16.20;15.17;;;7.40;99.90;;;;;;4856256;29;20200;-45
2023/02/03 09:09:16;;;;;;;15.30;14.40;;;7.40;99.90;;;;;;4856336;29;20477;-53
2023/02/03 09:11:42;;;;;;;15.70;14.77;;;7.40;99.90;;;;;;4856309;29;20532;-46
2023/02/03 09:14:08;;;;;;;15.97;15.07;;;7.40;99.90;;;;;;4856795;29;20272;-46
2023/02/03 09:16:34;;;;;;;15.77;14.77;;;7.40;99.90;;;;;;4856261;29;20962;-46
2023/02/03 09:19:00;;;;;;;15.30;14.30;;;7.30;99.90;;;;;;4856785;29;20947;-48
2023/02/03 09:21:26;;;;;;;16.13;15.13;;;7.30;99.90;;;;;;4855531;29;20425;-45
2023/02/03 09:23:51;;;;;;;15.97;14.93;;;7.40;99.90;;;;;;4855377;29;20605;-49
2023/02/03 09:26:17;;;;;;;16.20;15.30;;;7.40;99.90;;;;;;4856122;29;20259;-49
2023/02/03 09:28:43;;;;;;;16.10;15.20;;;7.40;99.90;;;;;;4854755;29;20659;-45
2023/02/03 09:31:11;;;;;;;15.03;14.13;;;7.40;99.90;;;;;;4854565;29;20220;-47
2023/02/03 09:33:38;;;;;;;16.77;15.47;;;7.40;99.90;;;;;;4855546;29;20560;-47
2023/02/03 09:36:05;;;;;;;16.27;15.27;;;7.40;99.90;;;;;;4855999;29;20425;-44
2023/02/03 09:38:32;;;;;;;15.83;14.70;;;7.40;99.90;;;;;;4856208;29;20787;-45
2023/02/03 09:41:03;;;;;;;16.37;15.37;;;7.40;99.90;;;;;;4856125;29;20496;-42
2023/02/03 09:43:55;;;;;;;16.27;15.13;;;7.50;99.90;;;;;;4853883;29;20812;-44
2023/02/03 09:46:33;;;;;;;16.50;15.33;;;7.50;99.90;;;;;;4856077;29;20485;-45
2023/02/03 09:49:16;;;;;;;16.13;15.13;;;7.50;99.90;;;;;;4855756;29;20440;-44
2023/02/03 09:51:51;;;;;;;15.53;14.63;;;7.50;99.90;;;;;;4856389;29;20927;-44
2023/02/03 09:54:23;;;;;;;15.60;14.70;;;7.50;99.90;;;;;;4853106;29;20484;-44
2023/02/03 09:56:52;;;;;;;14.48;13.57;;;7.50;99.90;;;;;;4856038;29;20440;-44
2023/02/03 09:59:25;;;;;;;15.53;14.63;;;7.50;99.90;;;;;;4856001;29;20308;-44
2023/02/03 10:02:08;;;;;;;15.30;14.37;;;7.50;99.90;;;;;;4855279;29;20430;-44
2023/02/03 10:04:43;;;;;;;15.83;14.70;;;7.50;99.90;;;;;;4855980;29;20963;-46
2023/02/03 10:07:19;;;;;;;15.53;14.53;;;7.50;99.90;;;;;;4855703;29;20417;-43
2023/02/03 10:10:04;;;;;;;15.27;14.33;;;7.50;99.90;;;;;;4855717;29;20421;-46
2023/02/03 10:13:03;;;;;;;15.43;14.53;;;7.50;99.90;;;;;;4857567;29;20478;-44
2023/02/03 10:15:36;;;;;;;16.25;15.23;;;7.50;99.90;;;;;;4846163;29;20449;-44
2023/02/03 10:18:24;;;;;;;16.73;15.70;;;7.60;99.90;;;;;;4859201;29;20188;-44
2023/02/03 10:20:54;;;;;;;17.07;16.17;;;7.50;99.90;;;;;;4859131;29;20429;-44
2023/02/03 10:23:29;;;;;;;15.97;14.97;;;7.50;99.90;;;;;;4858277;29;20451;-43
2023/02/03 10:25:57;;;;;;;16.52;15.43;;;7.50;99.90;;;;;;4859081;29;20425;-46
2023/02/03 10:28:25;;;;;;;17.02;15.90;;;7.60;99.90;;;;;;4858841;29;20256;-43
2023/02/03 10:30:59;;;;;;;16.20;15.10;;;7.50;99.90;;;;;;4857439;29;20656;-47
2023/02/03 10:33:28;;;;;;;16.70;15.60;;;7.50;99.90;;;;;;4868312;29;20455;-45
2023/02/03 10:35:58;;;;;;;16.73;15.70;;;7.50;99.90;;;;;;4859089;29;20418;-43
2023/02/03 10:38:54;;;;;;;16.57;15.37;;;7.50;99.90;;;;;;4857053;29;20996;-44
2023/02/03 10:41:21;;;;;;;16.43;15.33;;;7.50;99.90;;;;;;4858678;29;21281;-49
2023/02/03 10:43:52;;;;;;;16.60;15.60;;;7.50;99.90;;;;;;4857939;29;20562;-45
2023/02/03 10:46:19;;;;;;;16.97;15.73;;;7.40;99.90;;;;;;4858481;29;20203;-46
2023/02/03 10:48:45;;;;;;;16.23;15.33;;;7.50;99.90;;;;;;4858064;29;20432;-45
2023/02/03 10:51:30;;;;;;;17.03;16.03;;;7.50;99.90;;;;;;4858303;29;20425;-45
2023/02/03 10:53:57;;;;;;;17.10;16.00;;;7.50;99.90;;;;;;4857586;29;20188;-46
2023/02/03 10:56:27;;;;;;;16.37;15.13;;;7.50;99.90;;;;;;4857074;29;20461;-45
2023/02/03 10:58:58;;;;;;;16.30;15.30;;;7.60;99.90;;;;;;4858344;29;21784;-44
2023/02/03 11:01:40;;;;;;;17.17;15.97;;;7.60;99.90;;;;;;4858089;29;20185;-44
2023/02/03 11:04:22;;;;;;;17.37;16.30;;;7.60;99.90;;;;;;4857775;29;20485;-44
2023/02/03 11:07:05;;;;;;;16.50;15.50;;;7.60;99.90;;;;;;4858238;29;20429;-46
2023/02/03 11:09:41;;;;;;;15.50;14.60;;;7.60;99.90;;;;;;4858091;29;20437;-44
2023/02/03 11:12:08;;;;;;;16.07;15.13;;;7.60;99.90;;;;;;4857685;29;20771;-44
2023/02/03 11:14:43;;;;;;;16.50;15.50;;;7.60;99.90;;;;;;4872281;29;20484;-47
2023/02/03 11:17:25;;;;;;;16.37;15.40;;;7.70;99.90;;;;;;4857297;29;20839;-49
2023/02/03 11:19:53;;;;;;;16.27;15.27;;;7.60;99.90;;;;;;4857909;29;20425;-48
2023/02/03 11:22:32;;;;;;;15.33;14.53;;;7.70;99.90;;;;;;4856518;29;21067;-46
2023/02/03 11:25:00;;;;;;;17.77;16.67;;;7.70;99.90;;;;;;4857915;29;20460;-51
2023/02/03 11:27:29;;;;;;;16.93;15.93;;;7.70;99.90;;;;;;4855638;29;20192;-50
2023/02/03 11:30:19;;;;;;;17.63;16.67;;;7.80;99.90;;;;;;4858112;29;20433;-47
2023/02/03 11:32:47;;;;;;;18.30;17.20;;;7.80;99.90;;;;;;4856561;29;20512;-51
2023/02/03 11:35:20;;;;;;;17.90;16.80;;;7.80;99.90;;;;;;4857735;29;20440;-47
2023/02/03 11:37:54;;;;;;;17.50;16.30;;;7.70;99.90;;;;;;4857776;29;20783;-50
2023/02/03 11:40:20;;;;;;;15.60;14.40;;;7.80;99.90;;;;;;4857913;29;20933;-46
2023/02/03 11:42:48;;;;;;;15.70;14.80;;;7.80;99.90;;;;;;4856943;29;20447;-46
2023/02/03 11:45:23;;;;;;;14.73;13.93;;;7.70;99.90;;;;;;4857507;29;20213;-47
2023/02/03 11:48:09;;;;;;;16.57;15.50;;;7.70;99.90;;;;;;4846559;29;20421;-44
2023/02/03 11:50:50;;;;;;;14.13;13.32;;;7.70;99.90;;;;;;4857832;29;20525;-47
2023/02/03 11:53:21;;;;;;;15.02;14.13;;;7.70;99.90;;;;;;4857443;29;20219;-47
2023/02/03 11:55:57;;;;;;;14.90;13.90;;;7.70;99.90;;;;;;4857399;29;20259;-45
2023/02/03 11:58:38;;;;;;;14.10;13.20;;;7.70;99.90;;;;;;4857426;29;20928;-47
2023/02/03 12:01:06;;;;;;;15.53;14.73;;;7.70;99.90;;;;;;4856693;29;20441;-47
2023/02/03 12:03:44;;;;;;;13.67;12.87;;;7.80;99.90;;;;;;4857685;29;20713;-49
2023/02/03 12:07:08;;;;;;;14.17;13.27;;;7.80;99.90;;;;;;4857250;29;20767;-48
2023/02/03 12:09:46;;;;;;;12.00;11.40;;;7.80;99.90;;;;;;4855797;29;20517;-48
2023/02/03 12:12:38;;;;;;;13.33;12.63;;;7.80;99.90;;;;;;4856758;29;20791;-46
2023/02/03 12:15:41;;;;;;;11.90;11.30;;;7.80;99.90;;;;;;4856898;29;20441;-49
2023/02/03 12:18:21;;;;;;;13.37;12.67;;;7.90;99.90;;;;;;4856950;29;20931;-50
2023/02/03 12:20:52;;;;;;;12.60;11.90;;;8.00;99.90;;;;;;4857085;29;20440;-51
2023/02/03 12:23:34;;;;;;;11.60;11.00;;;8.00;99.90;;;;;;4856990;29;20473;-47
2023/02/03 12:26:14;;;;;;;13.23;12.43;;;8.00;99.90;;;;;;4856302;29;20433;-51
2023/02/03 12:28:49;;;;;;;12.43;11.83;;;8.00;99.90;;;;;;4845206;29;20457;-47
2023/02/03 12:31:43;;;;;;;12.30;11.60;;;8.00;99.90;;;;;;4856269;29;20544;-47
2023/02/03 12:34:25;;;;;;;13.13;12.43;;;8.00;99.90;;;;;;4855503;29;20891;-52
2023/02/03 12:37:02;;;;;;;13.27;12.67;;;8.10;99.90;;;;;;4856827;29;20426;-46
2023/02/03 12:39:34;;;;;;;13.10;12.40;;;8.10;99.90;;;;;;4854923;29;20535;-48
2023/02/03 12:42:11;;;;;;;12.60;12.00;;;8.10;99.90;;;;;;4856869;29;20908;-47
2023/02/03 12:44:51;;;;;;;12.70;12.10;;;8.20;99.90;;;;;;4854380;29;20468;-47
2023/02/03 12:47:35;;;;;;;13.50;12.90;;;8.20;99.90;;;;;;4857089;29;20461;-46
2023/02/03 12:50:13;;;;;;;13.60;12.90;;;8.20;99.90;;;;;;4856527;29;20512;-48
2023/02/03 12:52:42;;;;;;;14.13;13.43;;;8.30;99.90;;;;;;4856466;29;20511;-49